createdAt,value
2019-01-10T00:00:09.386Z,75.90
2019-01-10T00:02:35.440Z,76.00
2019-01-10T00:05:01.493Z,75.80
2019-01-10T00:07:27.544Z,76.00
2019-01-10T00:09:53.600Z,75.90
2019-01-10T00:12:19.668Z,76.20
2019-01-10T00:14:45.711Z,76.30
2019-01-10T00:17:11.763Z,76.40
2019-01-10T00:19:37.815Z,76.00
2019-01-10T00:22:05.913Z,76.30
2019-01-10T00:24:32.044Z,76.20
2019-01-10T00:26:58.363Z,76.20
2019-01-10T00:29:24.696Z,76.00
2019-01-10T00:31:50.748Z,76.00
2019-01-10T00:34:16.788Z,76.70
2019-01-10T00:36:42.877Z,75.80
2019-01-10T00:39:09.295Z,75.60
2019-01-10T00:41:35.748Z,75.50
2019-01-10T00:44:02.371Z,75.20
2019-01-10T00:46:28.415Z,75.20
2019-01-10T00:48:54.820Z,75.20
2019-01-10T00:51:20.892Z,75.00
2019-01-10T00:53:46.937Z,75.10
2019-01-10T00:56:12.980Z,75.10
2019-01-10T00:58:39.323Z,75.10
2019-01-10T01:01:05.364Z,75.20
2019-01-10T01:03:31.412Z,75.10
2019-01-10T01:05:57.460Z,75.10
2019-01-10T01:08:23.501Z,75.00
2019-01-10T01:10:49.554Z,75.00
2019-01-10T01:13:15.873Z,75.00
2019-01-10T01:15:42.011Z,75.00
2019-01-10T01:18:08.052Z,75.10
2019-01-10T01:20:34.451Z,74.90
2019-01-10T01:23:00.500Z,75.00
2019-01-10T01:25:26.647Z,75.10
2019-01-10T01:27:53.032Z,75.00
2019-01-10T01:30:21.180Z,75.10
2019-01-10T01:32:47.230Z,75.10
2019-01-10T01:35:13.887Z,74.90
2019-01-10T01:37:39.959Z,74.90
2019-01-10T01:40:09.347Z,74.90
2019-01-10T01:42:35.397Z,74.90
2019-01-10T01:45:01.461Z,74.70
2019-01-10T01:47:27.503Z,74.70
2019-01-10T01:49:53.548Z,74.90
2019-01-10T01:52:19.612Z,75.00
2019-01-10T01:54:45.654Z,75.10
2019-01-10T01:57:11.702Z,75.30
2019-01-10T01:59:37.760Z,75.20
2019-01-10T02:04:30.467Z,75.00
2019-01-10T02:06:56.519Z,76.00
2019-01-10T02:09:22.576Z,76.30
2019-01-10T02:11:48.623Z,76.30
2019-01-10T02:14:14.660Z,76.40
2019-01-10T02:16:40.723Z,76.50
2019-01-10T02:19:06.764Z,77.00
2019-01-10T02:21:32.799Z,77.20
2019-01-10T02:23:58.855Z,77.40
2019-01-10T02:26:24.906Z,77.60
2019-01-10T02:28:51.147Z,77.90
2019-01-10T02:31:17.516Z,77.90
2019-01-10T02:33:43.557Z,78.00
2019-01-10T02:36:09.610Z,78.00
2019-01-10T02:38:35.672Z,78.10
2019-01-10T02:41:02.843Z,78.10
2019-01-10T02:43:29.579Z,78.30
2019-01-10T02:45:55.656Z,78.60
2019-01-10T02:48:21.709Z,78.60
2019-01-10T02:50:48.057Z,78.80
2019-01-10T02:53:14.117Z,78.90
2019-01-10T02:55:40.162Z,78.90
2019-01-10T02:58:06.534Z,78.60
2019-01-10T03:00:32.792Z,78.30
2019-01-10T03:02:59.050Z,78.10
2019-01-10T03:05:25.095Z,77.80
2019-01-10T03:07:51.280Z,77.60
2019-01-10T03:10:21.221Z,77.50
2019-01-10T03:12:47.355Z,77.30
2019-01-10T03:15:13.627Z,77.00
2019-01-10T03:17:39.797Z,77.00
2019-01-10T03:20:09.788Z,76.90
2019-01-10T03:22:35.822Z,77.00
2019-01-10T03:25:02.111Z,76.90
2019-01-10T03:27:28.849Z,76.90
2019-01-10T03:29:54.887Z,77.00
2019-01-10T03:32:20.941Z,77.30
2019-01-10T03:34:46.989Z,77.40
2019-01-10T03:37:13.348Z,77.40
2019-01-10T03:39:39.397Z,77.30
2019-01-10T03:42:05.440Z,77.50
2019-01-10T03:44:34.310Z,77.40
2019-01-10T03:46:59.804Z,77.40
2019-01-10T03:49:26.045Z,77.50
2019-01-10T03:51:52.352Z,77.70
2019-01-10T03:54:18.396Z,77.60
2019-01-10T03:56:44.455Z,78.40
2019-01-10T03:59:10.497Z,77.70
2019-01-10T04:01:36.541Z,77.70
2019-01-10T04:04:02.698Z,77.70
2019-01-10T04:06:28.743Z,77.20
2019-01-10T04:08:54.807Z,77.70
2019-01-10T04:11:20.843Z,77.70
2019-01-10T04:13:57.127Z,77.80
2019-01-10T04:16:14.844Z,78.00
2019-01-10T04:18:40.875Z,78.10
2019-01-10T04:21:16.657Z,78.30
2019-01-10T04:23:34.899Z,78.50
2019-01-10T04:26:00.958Z,78.70
2019-01-10T04:28:27.016Z,78.90
2019-01-10T04:30:53.434Z,79.00
2019-01-10T04:33:19.472Z,78.90
2019-01-10T04:35:45.733Z,79.00
2019-01-10T04:38:12.150Z,78.60
2019-01-10T04:40:38.480Z,78.20
2019-01-10T04:43:04.512Z,78.30
2019-01-10T04:45:30.564Z,78.20
2019-01-10T04:47:56.966Z,78.20
2019-01-10T04:50:22.997Z,78.00
2019-01-10T04:52:49.051Z,78.10
2019-01-10T04:55:15.540Z,78.10
2019-01-10T04:57:41.968Z,78.00
2019-01-10T05:00:20.308Z,78.00
2019-01-10T05:02:46.469Z,78.10
2019-01-10T05:05:12.509Z,78.00
2019-01-10T05:07:38.567Z,77.90
2019-01-10T05:10:08.432Z,77.90
2019-01-10T05:12:34.471Z,78.10
2019-01-10T05:15:00.520Z,77.90
2019-01-10T05:17:26.844Z,78.00
2019-01-10T05:19:53.084Z,78.10
2019-01-10T05:22:19.119Z,78.00
2019-01-10T05:24:45.182Z,78.00
2019-01-10T05:27:11.225Z,77.90
2019-01-10T05:29:37.261Z,77.70
2019-01-10T05:32:03.326Z,77.50
2019-01-10T05:34:29.623Z,77.40
2019-01-10T05:36:55.778Z,77.40
2019-01-10T05:39:21.831Z,77.50
2019-01-10T05:41:47.871Z,77.30
2019-01-10T05:44:14.225Z,77.30
2019-01-10T05:46:48.300Z,77.30
2019-01-10T05:49:08.242Z,77.90
2019-01-10T05:51:34.292Z,77.50
2019-01-10T05:54:00.350Z,77.50
2019-01-10T05:56:26.691Z,77.50
2019-01-10T05:58:52.755Z,77.60
2019-01-10T06:01:18.847Z,77.80
2019-01-10T06:03:52.962Z,77.80
2019-01-10T06:06:12.836Z,78.30
2019-01-10T06:08:38.876Z,77.90
2019-01-10T06:11:05.191Z,78.10
2019-01-10T06:13:31.236Z,78.20
2019-01-10T06:15:57.292Z,78.80
2019-01-10T06:18:23.344Z,78.20
2019-01-10T06:20:49.695Z,78.20
2019-01-10T06:23:17.906Z,78.30
2019-01-10T06:25:43.715Z,78.50
2019-01-10T06:28:09.756Z,78.40
2019-01-10T06:30:35.825Z,78.20
2019-01-10T06:33:01.885Z,78.40
2019-01-10T06:35:27.923Z,78.60
2019-01-10T06:37:54.311Z,78.60
2019-01-10T06:40:20.645Z,78.60
2019-01-10T06:42:46.679Z,79.20
2019-01-10T06:45:14.539Z,79.00
2019-01-10T06:47:40.860Z,79.30
2019-01-10T06:50:09.955Z,80.20
2019-01-10T06:52:36.010Z,79.50
2019-01-10T06:55:04.253Z,79.50
2019-01-10T06:57:30.308Z,79.50
2019-01-10T06:59:56.708Z,79.70
2019-01-10T07:02:22.777Z,79.60
2019-01-10T07:04:48.811Z,80.60
2019-01-10T07:07:15.184Z,79.70
2019-01-10T07:09:41.225Z,79.70
2019-01-10T07:12:07.793Z,79.90
2019-01-10T07:14:34.384Z,79.80
2019-01-10T07:17:00.423Z,79.80
2019-01-10T07:19:29.468Z,79.80
2019-01-10T07:21:55.528Z,79.90
2019-01-10T07:24:22.278Z,79.90
2019-01-10T07:26:48.314Z,80.10
2019-01-10T07:29:14.620Z,80.10
2019-01-10T07:31:40.662Z,80.10
2019-01-10T07:34:06.721Z,80.40
2019-01-10T07:36:32.757Z,80.10
2019-01-10T07:38:58.820Z,80.30
2019-01-10T07:41:24.975Z,80.40
2019-01-10T07:43:51.027Z,80.40
2019-01-10T07:46:17.068Z,80.60
2019-01-10T07:48:47.126Z,80.60
2019-01-10T07:51:13.173Z,80.70
2019-01-10T07:53:39.229Z,80.60
2019-01-10T07:56:05.261Z,80.90
2019-01-10T07:58:31.330Z,80.70
2019-01-10T08:00:57.377Z,80.70
2019-01-10T08:03:23.418Z,80.70
2019-01-10T08:05:49.936Z,80.60
2019-01-10T08:08:15.992Z,80.80
2019-01-10T08:10:42.137Z,81.00
2019-01-10T08:13:08.279Z,80.70
2019-01-10T08:15:34.553Z,81.00
2019-01-10T08:18:00.899Z,81.00
2019-01-10T08:20:26.939Z,81.10
2019-01-10T08:22:52.995Z,80.90
2019-01-10T08:25:19.047Z,81.10
2019-01-10T08:27:45.087Z,80.70
2019-01-10T08:30:14.479Z,80.60
2019-01-10T08:32:40.520Z,80.90
2019-01-10T08:35:07.163Z,80.80
2019-01-10T08:37:33.219Z,80.90
2019-01-10T08:39:59.264Z,81.10
2019-01-10T08:42:25.660Z,80.90
2019-01-10T08:44:51.722Z,80.80
2019-01-10T08:47:17.752Z,80.80
2019-01-10T08:49:43.800Z,80.80
2019-01-10T08:52:09.855Z,81.10
2019-01-10T08:54:36.179Z,81.00
2019-01-10T08:57:02.228Z,81.20
2019-01-10T08:59:28.288Z,81.00
2019-01-10T09:01:54.335Z,80.90
2019-01-10T09:04:20.375Z,80.90
2019-01-10T09:06:46.427Z,81.30
2019-01-10T09:09:12.468Z,81.30
2019-01-10T09:11:38.532Z,81.30
2019-01-10T09:14:04.777Z,81.40
2019-01-10T09:16:31.028Z,81.30
2019-01-10T09:18:57.081Z,81.00
2019-01-10T09:21:23.638Z,81.30
2019-01-10T09:23:49.726Z,81.20
2019-01-10T09:26:15.764Z,81.50
2019-01-10T09:28:41.838Z,81.20
2019-01-10T09:31:07.882Z,81.10
2019-01-10T09:33:33.923Z,81.60
2019-01-10T09:35:59.968Z,81.20
2019-01-10T09:38:26.343Z,81.30
2019-01-10T09:40:52.403Z,81.40
2019-01-10T09:43:18.447Z,82.00
2019-01-10T09:45:44.492Z,81.30
2019-01-10T09:48:10.562Z,81.80
2019-01-10T09:50:36.604Z,81.50
2019-01-10T09:53:02.947Z,81.30
2019-01-10T09:55:29.103Z,81.50
2019-01-10T09:57:55.140Z,81.60
2019-01-10T10:00:24.008Z,81.50
2019-01-10T10:02:50.359Z,81.70
2019-01-10T10:05:16.505Z,81.70
2019-01-10T10:07:42.588Z,81.70
2019-01-10T10:10:14.935Z,81.60
2019-01-10T10:12:40.977Z,81.70
2019-01-10T10:15:09.473Z,81.80
2019-01-10T10:17:35.573Z,81.70
2019-01-10T10:20:04.344Z,81.70
2019-01-10T10:22:30.392Z,81.60
2019-01-10T10:24:56.431Z,81.90
2019-01-10T10:27:22.500Z,81.90
2019-01-10T10:29:49.428Z,82.10
2019-01-10T10:32:15.488Z,81.90
2019-01-10T10:34:41.529Z,82.00
2019-01-10T10:37:07.583Z,81.80
2019-01-10T10:39:33.912Z,81.70
2019-01-10T10:41:59.975Z,81.40
2019-01-10T10:44:26.018Z,81.50
2019-01-10T10:46:52.086Z,81.60
2019-01-10T10:49:18.416Z,81.70
2019-01-10T10:51:44.471Z,81.90
2019-01-10T10:54:10.526Z,81.70
2019-01-10T10:56:36.661Z,81.70
2019-01-10T10:59:03.320Z,81.70
2019-01-10T11:01:29.356Z,81.80
2019-01-10T11:03:55.413Z,81.90
2019-01-10T11:06:21.464Z,82.40
2019-01-10T11:08:47.661Z,82.20
2019-01-10T11:11:14.056Z,82.30
2019-01-10T11:13:40.111Z,82.30
2019-01-10T11:16:10.683Z,82.40
2019-01-10T11:18:34.115Z,82.50
2019-01-10T11:21:00.500Z,82.60
2019-01-10T11:23:26.560Z,82.30
2019-01-10T11:25:52.606Z,83.00
2019-01-10T11:28:18.981Z,82.10
2019-01-10T11:30:45.016Z,82.10
2019-01-10T11:33:11.374Z,82.20
2019-01-10T11:35:37.769Z,82.20
2019-01-10T11:38:03.867Z,82.20
2019-01-10T11:40:30.081Z,82.50
2019-01-10T11:42:56.147Z,82.50
2019-01-10T11:45:23.891Z,82.60
2019-01-10T11:47:49.929Z,82.50
2019-01-10T11:50:16.181Z,82.10
2019-01-10T11:52:42.925Z,82.60
2019-01-10T11:55:09.284Z,82.00
2019-01-10T11:57:35.527Z,81.80
2019-01-10T12:00:11.456Z,81.60
2019-01-10T12:02:37.504Z,81.50
2019-01-10T12:05:06.717Z,81.20
2019-01-10T12:07:32.757Z,81.40
2019-01-10T12:09:58.805Z,81.50
2019-01-10T12:12:24.844Z,81.10
2019-01-10T12:14:50.904Z,81.40
2019-01-10T12:17:17.049Z,81.40
2019-01-10T12:19:43.111Z,81.30
2019-01-10T12:22:09.364Z,81.50
2019-01-10T12:24:35.421Z,81.50
2019-01-10T12:27:01.455Z,80.80
2019-01-10T12:29:35.914Z,81.30
2019-01-10T12:31:55.455Z,81.60
2019-01-10T12:34:21.507Z,81.00
2019-01-10T12:36:47.548Z,81.00
2019-01-10T12:39:13.608Z,81.20
2019-01-10T12:41:39.652Z,81.20
2019-01-10T12:44:06.486Z,81.00
2019-01-10T12:46:37.451Z,81.20
2019-01-10T12:49:00.595Z,81.10
2019-01-10T12:51:26.643Z,82.00
2019-01-10T12:53:52.684Z,81.00
2019-01-10T12:56:18.738Z,81.10
2019-01-10T12:58:44.774Z,81.30
2019-01-10T13:01:10.819Z,81.10
2019-01-10T13:03:36.903Z,80.60
2019-01-10T13:06:03.067Z,80.40
2019-01-10T13:08:29.113Z,80.30
2019-01-10T13:10:55.160Z,80.50
2019-01-10T13:13:21.208Z,80.50
2019-01-10T13:15:47.289Z,80.30
2019-01-10T13:18:13.331Z,80.40
2019-01-10T13:20:39.387Z,80.60
2019-01-10T13:23:05.443Z,80.30
2019-01-10T13:25:31.580Z,80.40
2019-01-10T13:27:57.627Z,81.30
2019-01-10T13:30:24.078Z,80.40
2019-01-10T13:32:50.226Z,80.10
2019-01-10T13:35:16.581Z,80.00
2019-01-10T13:37:42.922Z,80.00
2019-01-10T13:40:10.556Z,80.10
2019-01-10T13:42:36.610Z,80.40
2019-01-10T13:45:04.581Z,80.70
2019-01-10T13:47:30.628Z,80.50
2019-01-10T13:49:56.667Z,79.90
2019-01-10T13:52:22.718Z,79.40
2019-01-10T13:54:48.760Z,78.70
2019-01-10T13:57:14.821Z,79.20
2019-01-10T13:59:41.182Z,78.50
2019-01-10T14:02:07.232Z,77.80
2019-01-10T14:04:33.284Z,77.80
2019-01-10T14:06:59.343Z,77.50
2019-01-10T14:09:25.388Z,77.60
2019-01-10T14:11:51.499Z,77.30
2019-01-10T14:14:17.531Z,77.20
2019-01-10T14:16:43.584Z,77.10
2019-01-10T14:19:09.634Z,77.30
2019-01-10T14:21:35.695Z,77.30
2019-01-10T14:24:01.846Z,77.30
2019-01-10T14:26:27.912Z,77.10
2019-01-10T14:28:54.154Z,76.90
2019-01-10T14:31:20.551Z,77.20
2019-01-10T14:33:46.593Z,77.00
2019-01-10T14:36:12.737Z,77.10
2019-01-10T14:38:38.795Z,76.80
2019-01-10T14:41:04.957Z,76.60
2019-01-10T14:43:31.031Z,76.60
2019-01-10T14:45:57.118Z,76.70
2019-01-10T14:48:23.276Z,76.50
2019-01-10T14:50:49.327Z,76.30
2019-01-10T14:53:15.471Z,76.20
2019-01-10T14:55:41.866Z,76.10
2019-01-10T14:58:07.916Z,76.00
2019-01-10T15:00:34.224Z,76.10
2019-01-10T15:03:00.371Z,75.50
2019-01-10T15:05:26.465Z,75.50
2019-01-10T15:07:52.599Z,75.70
2019-01-10T15:10:19.024Z,75.60
2019-01-10T15:12:45.615Z,75.70
2019-01-10T15:15:15.460Z,75.80
2019-01-10T15:17:41.615Z,75.40
2019-01-10T15:20:13.669Z,75.50
2019-01-10T15:22:39.726Z,75.60
2019-01-10T15:25:06.169Z,75.40
2019-01-10T15:27:32.221Z,75.50
2019-01-10T15:29:58.277Z,75.60
2019-01-10T15:32:24.318Z,75.50
2019-01-10T15:34:50.392Z,75.60
2019-01-10T15:37:19.544Z,75.60
2019-01-10T15:39:45.951Z,75.20
2019-01-10T15:42:11.995Z,75.60
2019-01-10T15:44:38.035Z,75.60
2019-01-10T15:47:04.319Z,75.60
2019-01-10T15:49:30.364Z,75.60
2019-01-10T15:51:56.407Z,75.50
2019-01-10T15:54:22.463Z,75.60
2019-01-10T15:56:48.504Z,75.30
2019-01-10T15:59:14.646Z,74.80
2019-01-10T16:01:41.071Z,75.50
2019-01-10T16:04:07.600Z,75.20
2019-01-10T16:06:33.872Z,75.40
2019-01-10T16:09:00.265Z,75.00
2019-01-10T16:11:26.311Z,74.80
2019-01-10T16:13:52.624Z,75.20
2019-01-10T16:16:18.948Z,75.20
2019-01-10T16:18:44.988Z,75.50
2019-01-10T16:21:11.034Z,75.60
2019-01-10T16:23:37.167Z,75.50
2019-01-10T16:26:03.200Z,75.60
2019-01-10T16:28:29.255Z,75.80
2019-01-10T16:30:55.322Z,75.60
2019-01-10T16:33:21.365Z,76.00
2019-01-10T16:35:47.398Z,76.00
2019-01-10T16:38:13.448Z,75.70
2019-01-10T16:40:39.492Z,76.10
2019-01-10T16:43:11.760Z,75.80
2019-01-10T16:45:33.891Z,75.90
2019-01-10T16:48:00.141Z,76.10
2019-01-10T16:50:26.219Z,75.60
2019-01-10T16:52:52.268Z,75.10
2019-01-10T16:55:18.325Z,75.20
2019-01-10T16:57:44.375Z,75.60
2019-01-10T17:00:21.727Z,75.60
2019-01-10T17:02:47.771Z,75.60
2019-01-10T17:05:14.033Z,75.70
2019-01-10T17:07:40.073Z,75.70
2019-01-10T17:10:08.975Z,74.60
2019-01-10T17:12:35.295Z,74.40
2019-01-10T17:15:01.356Z,74.50
2019-01-10T17:17:27.412Z,74.40
2019-01-10T17:19:53.779Z,74.10
2019-01-10T17:22:19.848Z,74.30
2019-01-10T17:24:46.240Z,74.50
2019-01-10T17:27:12.376Z,74.40
2019-01-10T17:29:38.450Z,75.00
2019-01-10T17:32:04.596Z,74.30
2019-01-10T17:34:30.739Z,75.30
2019-01-10T17:36:56.800Z,74.60
2019-01-10T17:39:22.850Z,74.80
2019-01-10T17:41:48.903Z,74.90
2019-01-10T17:44:14.948Z,75.20
2019-01-10T17:46:41.007Z,75.60
2019-01-10T17:49:07.051Z,75.80
2019-01-10T17:51:33.101Z,75.90
2019-01-10T17:53:59.440Z,76.10
2019-01-10T17:56:25.495Z,77.10
2019-01-10T17:58:51.531Z,76.50
2019-01-10T18:01:17.586Z,76.80
2019-01-10T18:03:43.636Z,76.80
2019-01-10T18:06:09.696Z,77.00
2019-01-10T18:08:35.739Z,77.30
2019-01-10T18:11:01.802Z,77.30
2019-01-10T18:13:27.837Z,77.40
2019-01-10T18:15:53.879Z,77.60
2019-01-10T18:18:20.276Z,77.80
2019-01-10T18:20:46.317Z,77.80
2019-01-10T18:23:12.365Z,77.90
2019-01-10T18:25:38.421Z,77.70
2019-01-10T18:28:04.573Z,77.90
2019-01-10T18:30:30.613Z,77.90
2019-01-10T18:32:56.667Z,77.90
2019-01-10T18:35:26.381Z,78.00
2019-01-10T18:37:50.770Z,77.90
2019-01-10T18:40:17.013Z,78.00
2019-01-10T18:42:43.668Z,78.00
2019-01-10T18:45:15.594Z,78.20
2019-01-10T18:47:41.813Z,78.30
2019-01-10T18:50:17.927Z,78.30
2019-01-10T18:52:44.180Z,78.40
2019-01-10T18:55:10.220Z,78.50
2019-01-10T18:57:36.272Z,78.50
2019-01-10T19:00:06.123Z,78.30
2019-01-10T19:02:32.180Z,78.50
2019-01-10T19:04:58.481Z,78.60
2019-01-10T19:07:24.540Z,78.60
2019-01-10T19:09:50.976Z,78.70
2019-01-10T19:12:17.036Z,78.60
2019-01-10T19:14:43.084Z,78.70
2019-01-10T19:17:09.408Z,78.70
2019-01-10T19:19:35.455Z,78.70
2019-01-10T19:22:01.503Z,78.60
2019-01-10T19:24:27.555Z,78.60
2019-01-10T19:26:53.600Z,78.60
2019-01-10T19:29:19.932Z,78.80
2019-01-10T19:31:45.970Z,78.70
2019-01-10T19:34:12.020Z,78.70
2019-01-10T19:36:38.067Z,78.70
2019-01-10T19:39:06.822Z,78.70
2019-01-10T19:41:32.864Z,78.80
2019-01-10T19:43:58.923Z,78.80
2019-01-10T19:46:24.970Z,78.70
2019-01-10T19:48:51.032Z,78.80
2019-01-10T19:51:17.408Z,78.80
2019-01-10T19:53:43.460Z,78.80
2019-01-10T19:56:09.500Z,79.50
2019-01-10T19:58:35.564Z,78.90
2019-01-10T20:01:01.616Z,79.60
2019-01-10T20:03:27.660Z,78.90
2019-01-10T20:05:53.705Z,79.10
2019-01-10T20:08:20.845Z,79.10
2019-01-10T20:10:46.891Z,79.50
2019-01-10T20:13:12.936Z,79.60
2019-01-10T20:15:39.027Z,79.60
2019-01-10T20:18:05.129Z,79.80
2019-01-10T20:20:33.680Z,80.10
2019-01-10T20:22:59.717Z,80.00
2019-01-10T20:25:25.880Z,80.00
2019-01-10T20:27:52.372Z,80.20
2019-01-10T20:30:18.528Z,80.30
2019-01-10T20:32:44.784Z,80.40
2019-01-10T20:35:11.455Z,80.40
2019-01-10T20:37:37.504Z,80.60
2019-01-10T20:40:07.440Z,80.60
2019-01-10T20:42:33.487Z,80.60
2019-01-10T20:45:05.129Z,80.50
2019-01-10T20:47:31.191Z,80.80
2019-01-10T20:49:57.256Z,80.70
2019-01-10T20:52:23.324Z,80.80
2019-01-10T20:54:49.388Z,80.80
2019-01-10T20:57:15.427Z,80.80
2019-01-10T20:59:41.467Z,81.00
2019-01-10T21:02:07.632Z,81.70
2019-01-10T21:04:33.676Z,81.00
2019-01-10T21:06:59.717Z,81.00
2019-01-10T21:09:25.779Z,81.30
2019-01-10T21:11:52.147Z,81.00
2019-01-10T21:14:18.187Z,81.10
2019-01-10T21:16:44.237Z,81.30
2019-01-10T21:19:10.275Z,81.30
2019-01-10T21:21:36.934Z,81.30
2019-01-10T21:24:03.367Z,81.50
2019-01-10T21:26:29.418Z,81.50
2019-01-10T21:28:55.455Z,81.60
2019-01-10T21:31:21.520Z,81.70
2019-01-10T21:33:47.560Z,81.60
2019-01-10T21:36:13.608Z,81.70
2019-01-10T21:38:39.667Z,81.60
2019-01-10T21:41:05.959Z,81.80
2019-01-10T21:43:32.002Z,81.70
2019-01-10T21:45:59.027Z,82.20
2019-01-10T21:48:25.068Z,81.90
2019-01-10T21:50:51.106Z,81.90
2019-01-10T21:53:17.177Z,82.10
2019-01-10T21:55:43.223Z,82.10
2019-01-10T21:58:09.266Z,81.90
2019-01-10T22:00:35.364Z,81.90
2019-01-10T22:03:01.507Z,82.00
2019-01-10T22:05:27.571Z,81.90
2019-01-10T22:07:53.724Z,81.90
2019-01-10T22:10:19.784Z,81.90
2019-01-10T22:12:46.020Z,81.90
2019-01-10T22:15:13.775Z,81.80
2019-01-10T22:17:39.812Z,81.90
2019-01-10T22:20:09.568Z,81.90
2019-01-10T22:22:35.635Z,82.10
2019-01-10T22:25:01.679Z,82.20
2019-01-10T22:27:27.713Z,82.30
2019-01-10T22:29:53.790Z,82.10
2019-01-10T22:32:20.148Z,82.20
2019-01-10T22:34:46.453Z,82.30
2019-01-10T22:37:12.491Z,82.20
2019-01-10T22:39:38.559Z,82.30
2019-01-10T22:42:04.695Z,82.30
2019-01-10T22:44:30.732Z,82.10
2019-01-10T22:46:56.783Z,82.20
2019-01-10T22:49:22.823Z,82.30
2019-01-10T22:51:48.864Z,82.50
2019-01-10T22:54:15.272Z,82.40
2019-01-10T22:56:41.331Z,82.40
2019-01-10T22:59:07.449Z,82.50
2019-01-10T23:01:36.770Z,82.50
2019-01-10T23:04:03.592Z,82.60
2019-01-10T23:06:29.636Z,82.60
2019-01-10T23:08:55.687Z,82.60
2019-01-10T23:11:21.943Z,82.50
2019-01-10T23:13:53.260Z,83.40
2019-01-10T23:16:19.424Z,82.60
2019-01-10T23:18:45.467Z,82.70
2019-01-10T23:21:11.707Z,82.70
2019-01-10T23:23:37.760Z,82.70
2019-01-10T23:26:04.195Z,82.70
2019-01-10T23:28:35.959Z,82.40
2019-01-10T23:31:02.296Z,83.00
2019-01-10T23:33:28.351Z,83.00
2019-01-10T23:36:01.972Z,83.10
2019-01-10T23:38:28.538Z,83.00
2019-01-10T23:40:55.085Z,82.90
2019-01-10T23:43:21.127Z,82.90
2019-01-10T23:45:47.346Z,83.10
2019-01-10T23:48:13.408Z,83.80
2019-01-10T23:50:39.444Z,83.10
2019-01-10T23:53:05.487Z,83.10
2019-01-10T23:55:31.552Z,83.00
2019-01-10T23:57:57.861Z,83.10
